sensor_id;sensor_type;location;lat;lon;timestamp;P1;durP1;ratioP1;P2;durP2;ratioP2
42944;SDS011;28584;42.636;23.294;2023-06-24T00:01:04;1999.90;;;999.90;;
42944;SDS011;28584;42.636;23.294;2023-06-24T00:03:30;1999.90;;;999.90;;
42944;SDS011;28584;42.636;23.294;2023-06-24T00:05:56;1999.90;;;999.90;;
42944;SDS011;28584;42.636;23.294;2023-06-24T00:08:22;1999.90;;;999.90;;
42944;SDS011;28584;42.636;23.294;2023-06-24T00:10:48;1999.90;;;999.90;;
42944;SDS011;28584;42.636;23.294;2023-06-24T00:13:16;1999.90;;;999.90;;
42944;SDS011;28584;42.636;23.294;2023-06-24T00:15:42;1999.90;;;999.90;;
42944;SDS011;28584;42.636;23.294;2023-06-24T00:18:11;1976.43;;;999.90;;
42944;SDS011;28584;42.636;23.294;2023-06-24T00:20:36;1975.35;;;999.90;;
42944;SDS011;28584;42.636;23.294;2023-06-24T00:23:02;1956.75;;;998.05;;
42944;SDS011;28584;42.636;23.294;2023-06-24T00:25:28;1769.88;;;983.50;;
42944;SDS011;28584;42.636;23.294;2023-06-24T00:27:57;1915.35;;;992.47;;
42944;SDS011;28584;42.636;23.294;2023-06-24T00:30:22;1913.22;;;993.08;;
42944;SDS011;28584;42.636;23.294;2023-06-24T00:32:48;1985.07;;;997.75;;
42944;SDS011;28584;42.636;23.294;2023-06-24T00:35:13;1999.90;;;999.90;;
42944;SDS011;28584;42.636;23.294;2023-06-24T00:37:40;1999.90;;;999.90;;
42944;SDS011;28584;42.636;23.294;2023-06-24T00:40:08;1999.90;;;999.90;;
42944;SDS011;28584;42.636;23.294;2023-06-24T00:42:39;1999.90;;;999.90;;
42944;SDS011;28584;42.636;23.294;2023-06-24T00:45:05;1999.90;;;999.90;;
42944;SDS011;28584;42.636;23.294;2023-06-24T00:47:31;1999.90;;;999.90;;
42944;SDS011;28584;42.636;23.294;2023-06-24T00:49:57;1999.90;;;999.90;;
42944;SDS011;28584;42.636;23.294;2023-06-24T00:52:22;1999.90;;;999.90;;
42944;SDS011;28584;42.636;23.294;2023-06-24T00:54:48;1999.90;;;999.90;;
42944;SDS011;28584;42.636;23.294;2023-06-24T00:57:14;1999.90;;;999.90;;
42944;SDS011;28584;42.636;23.294;2023-06-24T00:59:42;1999.90;;;999.90;;
42944;SDS011;28584;42.636;23.294;2023-06-24T01:02:09;1999.90;;;999.90;;
42944;SDS011;28584;42.636;23.294;2023-06-24T01:04:35;1999.90;;;999.90;;
42944;SDS011;28584;42.636;23.294;2023-06-24T01:07:02;1999.90;;;999.90;;
42944;SDS011;28584;42.636;23.294;2023-06-24T01:09:29;1999.90;;;999.90;;
42944;SDS011;28584;42.636;23.294;2023-06-24T01:11:55;1999.90;;;999.90;;
42944;SDS011;28584;42.636;23.294;2023-06-24T01:14:20;1999.90;;;999.90;;
42944;SDS011;28584;42.636;23.294;2023-06-24T01:31:43;1999.90;;;999.90;;
42944;SDS011;28584;42.636;23.294;2023-06-24T01:37:12;1999.90;;;999.90;;
42944;SDS011;28584;42.636;23.294;2023-06-24T01:40:28;1999.90;;;999.90;;
42944;SDS011;28584;42.636;23.294;2023-06-24T01:42:44;1999.90;;;999.90;;
42944;SDS011;28584;42.636;23.294;2023-06-24T01:48:09;1992.30;;;999.90;;
42944;SDS011;28584;42.636;23.294;2023-06-24T01:50:39;1999.90;;;999.90;;
42944;SDS011;28584;42.636;23.294;2023-06-24T01:53:08;1999.90;;;999.90;;
42944;SDS011;28584;42.636;23.294;2023-06-24T01:55:35;1999.90;;;999.90;;
42944;SDS011;28584;42.636;23.294;2023-06-24T01:58:04;1999.90;;;999.90;;
42944;SDS011;28584;42.636;23.294;2023-06-24T02:00:32;1999.90;;;999.90;;
42944;SDS011;28584;42.636;23.294;2023-06-24T02:02:59;1999.90;;;999.90;;
42944;SDS011;28584;42.636;23.294;2023-06-24T02:05:26;1999.90;;;999.90;;
42944;SDS011;28584;42.636;23.294;2023-06-24T02:07:53;1999.90;;;999.90;;
42944;SDS011;28584;42.636;23.294;2023-06-24T02:10:20;1999.90;;;999.90;;
42944;SDS011;28584;42.636;23.294;2023-06-24T02:12:47;1999.90;;;999.90;;
42944;SDS011;28584;42.636;23.294;2023-06-24T02:15:14;1999.90;;;999.90;;
42944;SDS011;28584;42.636;23.294;2023-06-24T02:17:41;1999.90;;;999.90;;
42944;SDS011;28584;42.636;23.294;2023-06-24T02:20:08;1999.90;;;999.90;;
42944;SDS011;28584;42.636;23.294;2023-06-24T02:22:35;1999.90;;;999.90;;
42944;SDS011;28584;42.636;23.294;2023-06-24T02:25:04;1999.90;;;999.90;;
42944;SDS011;28584;42.636;23.294;2023-06-24T02:27:31;1999.90;;;999.90;;
42944;SDS011;28584;42.636;23.294;2023-06-24T02:29:57;1928.22;;;997.42;;
42944;SDS011;28584;42.636;23.294;2023-06-24T02:32:24;1680.55;;;975.25;;
42944;SDS011;28584;42.636;23.294;2023-06-24T02:34:50;1721.13;;;971.55;;
42944;SDS011;28584;42.636;23.294;2023-06-24T02:37:15;1790.25;;;979.47;;
42944;SDS011;28584;42.636;23.294;2023-06-24T02:39:41;1419.18;;;952.55;;
42944;SDS011;28584;42.636;23.294;2023-06-24T02:42:09;1486.78;;;971.92;;
42944;SDS011;28584;42.636;23.294;2023-06-24T02:44:36;1619.00;;;979.53;;
42944;SDS011;28584;42.636;23.294;2023-06-24T02:47:02;1601.32;;;975.75;;
42944;SDS011;28584;42.636;23.294;2023-06-24T02:49:29;1908.57;;;993.63;;
42944;SDS011;28584;42.636;23.294;2023-06-24T02:51:55;1909.63;;;996.88;;
42944;SDS011;28584;42.636;23.294;2023-06-24T02:54:21;1944.60;;;998.97;;
42944;SDS011;28584;42.636;23.294;2023-06-24T02:56:46;1995.82;;;999.90;;
42944;SDS011;28584;42.636;23.294;2023-06-24T02:59:13;1999.90;;;999.90;;
42944;SDS011;28584;42.636;23.294;2023-06-24T03:01:38;1999.90;;;999.90;;
42944;SDS011;28584;42.636;23.294;2023-06-24T03:04:05;1999.90;;;999.90;;
42944;SDS011;28584;42.636;23.294;2023-06-24T03:06:31;1999.90;;;999.90;;
42944;SDS011;28584;42.636;23.294;2023-06-24T03:08:57;1999.90;;;999.90;;
42944;SDS011;28584;42.636;23.294;2023-06-24T03:11:23;1999.90;;;998.30;;
42944;SDS011;28584;42.636;23.294;2023-06-24T03:13:50;1823.53;;;991.60;;
42944;SDS011;28584;42.636;23.294;2023-06-24T03:16:16;1648.07;;;974.40;;
42944;SDS011;28584;42.636;23.294;2023-06-24T03:18:41;1531.85;;;973.80;;
42944;SDS011;28584;42.636;23.294;2023-06-24T03:21:07;1648.88;;;982.53;;
42944;SDS011;28584;42.636;23.294;2023-06-24T03:23:33;1266.85;;;953.08;;
42944;SDS011;28584;42.636;23.294;2023-06-24T03:25:59;1068.38;;;902.60;;
42944;SDS011;28584;42.636;23.294;2023-06-24T03:28:24;861.80;;;788.83;;
42944;SDS011;28584;42.636;23.294;2023-06-24T03:30:50;866.63;;;791.22;;
42944;SDS011;28584;42.636;23.294;2023-06-24T03:33:15;811.50;;;744.55;;
42944;SDS011;28584;42.636;23.294;2023-06-24T03:35:42;653.85;;;603.55;;
42944;SDS011;28584;42.636;23.294;2023-06-24T03:38:07;616.45;;;573.30;;
42944;SDS011;28584;42.636;23.294;2023-06-24T03:40:33;651.88;;;604.92;;
42944;SDS011;28584;42.636;23.294;2023-06-24T03:42:58;738.65;;;680.17;;
42944;SDS011;28584;42.636;23.294;2023-06-24T03:45:24;701.80;;;649.08;;
42944;SDS011;28584;42.636;23.294;2023-06-24T03:47:49;618.03;;;574.75;;
42944;SDS011;28584;42.636;23.294;2023-06-24T03:50:14;581.20;;;542.13;;
42944;SDS011;28584;42.636;23.294;2023-06-24T03:52:40;512.00;;;478.58;;
42944;SDS011;28584;42.636;23.294;2023-06-24T03:55:05;517.33;;;483.38;;
42944;SDS011;28584;42.636;23.294;2023-06-24T03:57:31;525.65;;;491.55;;
42944;SDS011;28584;42.636;23.294;2023-06-24T03:59:56;501.13;;;470.13;;
42944;SDS011;28584;42.636;23.294;2023-06-24T04:02:22;443.52;;;417.00;;
42944;SDS011;28584;42.636;23.294;2023-06-24T04:04:47;334.92;;;316.02;;
42944;SDS011;28584;42.636;23.294;2023-06-24T04:07:15;341.48;;;321.40;;
42944;SDS011;28584;42.636;23.294;2023-06-24T04:09:53;257.88;;;243.98;;
42944;SDS011;28584;42.636;23.294;2023-06-24T04:12:20;208.15;;;197.70;;
42944;SDS011;28584;42.636;23.294;2023-06-24T04:14:45;197.00;;;186.82;;
42944;SDS011;28584;42.636;23.294;2023-06-24T04:17:10;119.47;;;112.95;;
42944;SDS011;28584;42.636;23.294;2023-06-24T04:19:36;57.20;;;53.72;;
42944;SDS011;28584;42.636;23.294;2023-06-24T04:22:01;34.25;;;31.92;;
42944;SDS011;28584;42.636;23.294;2023-06-24T04:24:26;22.50;;;19.80;;
42944;SDS011;28584;42.636;23.294;2023-06-24T04:26:52;27.45;;;25.02;;
42944;SDS011;28584;42.636;23.294;2023-06-24T04:29:17;30.48;;;27.80;;
42944;SDS011;28584;42.636;23.294;2023-06-24T04:31:43;35.08;;;32.50;;
42944;SDS011;28584;42.636;23.294;2023-06-24T04:34:08;63.67;;;59.85;;
42944;SDS011;28584;42.636;23.294;2023-06-24T04:36:33;96.38;;;90.95;;
42944;SDS011;28584;42.636;23.294;2023-06-24T04:39:00;82.25;;;77.82;;
42944;SDS011;28584;42.636;23.294;2023-06-24T04:41:25;52.28;;;49.03;;
42944;SDS011;28584;42.636;23.294;2023-06-24T04:43:51;36.88;;;33.92;;
42944;SDS011;28584;42.636;23.294;2023-06-24T04:46:16;22.60;;;20.85;;
42944;SDS011;28584;42.636;23.294;2023-06-24T04:48:41;16.92;;;12.88;;
42944;SDS011;28584;42.636;23.294;2023-06-24T04:51:07;12.38;;;11.07;;
42944;SDS011;28584;42.636;23.294;2023-06-24T04:53:32;15.27;;;12.13;;
42944;SDS011;28584;42.636;23.294;2023-06-24T04:55:58;15.15;;;11.38;;
42944;SDS011;28584;42.636;23.294;2023-06-24T04:58:24;12.27;;;11.18;;
42944;SDS011;28584;42.636;23.294;2023-06-24T05:00:49;18.63;;;15.65;;
42944;SDS011;28584;42.636;23.294;2023-06-24T05:03:14;20.08;;;18.15;;
42944;SDS011;28584;42.636;23.294;2023-06-24T05:05:40;15.60;;;14.10;;
42944;SDS011;28584;42.636;23.294;2023-06-24T05:08:05;13.35;;;11.95;;
42944;SDS011;28584;42.636;23.294;2023-06-24T05:10:30;13.98;;;11.23;;
42944;SDS011;28584;42.636;23.294;2023-06-24T05:12:56;14.65;;;13.05;;
42944;SDS011;28584;42.636;23.294;2023-06-24T05:15:21;44.70;;;41.85;;
42944;SDS011;28584;42.636;23.294;2023-06-24T05:17:47;28.90;;;26.67;;
42944;SDS011;28584;42.636;23.294;2023-06-24T05:20:12;29.33;;;26.95;;
42944;SDS011;28584;42.636;23.294;2023-06-24T05:22:37;156.52;;;147.25;;
42944;SDS011;28584;42.636;23.294;2023-06-24T05:25:03;26.02;;;24.00;;
42944;SDS011;28584;42.636;23.294;2023-06-24T05:27:28;18.58;;;16.35;;
42944;SDS011;28584;42.636;23.294;2023-06-24T05:29:54;16.75;;;15.05;;
42944;SDS011;28584;42.636;23.294;2023-06-24T05:32:19;18.30;;;13.20;;
42944;SDS011;28584;42.636;23.294;2023-06-24T05:34:45;19.00;;;13.70;;
42944;SDS011;28584;42.636;23.294;2023-06-24T05:37:11;18.17;;;13.45;;
42944;SDS011;28584;42.636;23.294;2023-06-24T05:39:36;17.38;;;12.75;;
42944;SDS011;28584;42.636;23.294;2023-06-24T05:42:01;15.88;;;13.32;;
42944;SDS011;28584;42.636;23.294;2023-06-24T05:44:27;50.17;;;46.83;;
42944;SDS011;28584;42.636;23.294;2023-06-24T05:46:52;219.60;;;207.77;;
42944;SDS011;28584;42.636;23.294;2023-06-24T05:49:18;75.03;;;70.57;;
42944;SDS011;28584;42.636;23.294;2023-06-24T05:51:43;39.65;;;36.72;;
42944;SDS011;28584;42.636;23.294;2023-06-24T05:54:09;19.60;;;17.60;;
42944;SDS011;28584;42.636;23.294;2023-06-24T05:56:34;18.38;;;15.05;;
42944;SDS011;28584;42.636;23.294;2023-06-24T05:59:01;17.02;;;15.23;;
42944;SDS011;28584;42.636;23.294;2023-06-24T06:01:26;17.52;;;14.02;;
42944;SDS011;28584;42.636;23.294;2023-06-24T06:03:52;16.50;;;12.75;;
42944;SDS011;28584;42.636;23.294;2023-06-24T06:06:17;16.77;;;12.70;;
42944;SDS011;28584;42.636;23.294;2023-06-24T06:08:43;14.38;;;12.98;;
42944;SDS011;28584;42.636;23.294;2023-06-24T06:11:08;15.13;;;12.35;;
42944;SDS011;28584;42.636;23.294;2023-06-24T06:13:33;13.20;;;11.80;;
42944;SDS011;28584;42.636;23.294;2023-06-24T06:15:59;14.55;;;12.05;;
42944;SDS011;28584;42.636;23.294;2023-06-24T06:18:24;13.88;;;12.15;;
42944;SDS011;28584;42.636;23.294;2023-06-24T06:20:50;13.75;;;12.13;;
42944;SDS011;28584;42.636;23.294;2023-06-24T06:23:15;18.60;;;12.40;;
42944;SDS011;28584;42.636;23.294;2023-06-24T06:25:41;14.32;;;12.15;;
42944;SDS011;28584;42.636;23.294;2023-06-24T06:28:06;14.38;;;12.88;;
42944;SDS011;28584;42.636;23.294;2023-06-24T06:30:31;14.75;;;12.55;;
42944;SDS011;28584;42.636;23.294;2023-06-24T06:32:57;14.80;;;12.73;;
42944;SDS011;28584;42.636;23.294;2023-06-24T06:35:22;16.85;;;13.32;;
42944;SDS011;28584;42.636;23.294;2023-06-24T06:37:47;15.75;;;14.13;;
42944;SDS011;28584;42.636;23.294;2023-06-24T06:40:17;13.85;;;12.50;;
42944;SDS011;28584;42.636;23.294;2023-06-24T06:42:43;19.33;;;12.90;;
42944;SDS011;28584;42.636;23.294;2023-06-24T06:45:09;16.10;;;12.50;;
42944;SDS011;28584;42.636;23.294;2023-06-24T06:47:34;15.63;;;12.40;;
42944;SDS011;28584;42.636;23.294;2023-06-24T06:50:00;20.17;;;12.13;;
42944;SDS011;28584;42.636;23.294;2023-06-24T06:52:25;14.52;;;13.05;;
42944;SDS011;28584;42.636;23.294;2023-06-24T06:54:52;20.13;;;13.57;;
42944;SDS011;28584;42.636;23.294;2023-06-24T06:57:17;14.05;;;12.75;;
42944;SDS011;28584;42.636;23.294;2023-06-24T06:59:43;16.15;;;12.48;;
42944;SDS011;28584;42.636;23.294;2023-06-24T07:02:08;13.85;;;12.32;;
42944;SDS011;28584;42.636;23.294;2023-06-24T07:04:33;16.05;;;13.63;;
42944;SDS011;28584;42.636;23.294;2023-06-24T07:06:59;15.45;;;13.30;;
42944;SDS011;28584;42.636;23.294;2023-06-24T07:09:24;16.17;;;13.35;;
42944;SDS011;28584;42.636;23.294;2023-06-24T07:11:50;15.52;;;13.10;;
42944;SDS011;28584;42.636;23.294;2023-06-24T07:14:15;17.80;;;13.70;;
42944;SDS011;28584;42.636;23.294;2023-06-24T07:16:40;18.15;;;14.45;;
42944;SDS011;28584;42.636;23.294;2023-06-24T07:19:06;19.63;;;14.98;;
42944;SDS011;28584;42.636;23.294;2023-06-24T07:21:31;19.23;;;14.15;;
42944;SDS011;28584;42.636;23.294;2023-06-24T07:23:56;16.48;;;14.52;;
42944;SDS011;28584;42.636;23.294;2023-06-24T07:26:22;18.05;;;12.68;;
42944;SDS011;28584;42.636;23.294;2023-06-24T07:28:47;15.85;;;14.20;;
42944;SDS011;28584;42.636;23.294;2023-06-24T07:31:13;18.38;;;14.90;;
42944;SDS011;28584;42.636;23.294;2023-06-24T07:33:38;15.95;;;14.30;;
42944;SDS011;28584;42.636;23.294;2023-06-24T07:36:03;15.38;;;13.93;;
42944;SDS011;28584;42.636;23.294;2023-06-24T07:38:29;16.70;;;13.55;;
42944;SDS011;28584;42.636;23.294;2023-06-24T07:40:55;19.83;;;14.27;;
42944;SDS011;28584;42.636;23.294;2023-06-24T07:43:20;17.67;;;13.45;;
42944;SDS011;28584;42.636;23.294;2023-06-24T07:45:46;16.75;;;13.98;;
42944;SDS011;28584;42.636;23.294;2023-06-24T07:48:11;18.08;;;14.93;;
42944;SDS011;28584;42.636;23.294;2023-06-24T07:50:37;18.88;;;15.85;;
42944;SDS011;28584;42.636;23.294;2023-06-24T07:53:04;18.48;;;15.70;;
42944;SDS011;28584;42.636;23.294;2023-06-24T07:55:29;19.20;;;16.33;;
42944;SDS011;28584;42.636;23.294;2023-06-24T07:57:54;16.63;;;15.05;;
42944;SDS011;28584;42.636;23.294;2023-06-24T08:00:20;24.33;;;15.70;;
42944;SDS011;28584;42.636;23.294;2023-06-24T08:02:45;22.13;;;18.48;;
42944;SDS011;28584;42.636;23.294;2023-06-24T08:05:11;20.83;;;17.27;;
42944;SDS011;28584;42.636;23.294;2023-06-24T08:07:37;17.80;;;15.18;;
42944;SDS011;28584;42.636;23.294;2023-06-24T08:10:03;21.13;;;16.73;;
42944;SDS011;28584;42.636;23.294;2023-06-24T08:12:29;18.05;;;15.23;;
42944;SDS011;28584;42.636;23.294;2023-06-24T08:14:54;16.38;;;14.68;;
42944;SDS011;28584;42.636;23.294;2023-06-24T08:17:20;18.65;;;14.85;;
42944;SDS011;28584;42.636;23.294;2023-06-24T08:19:45;18.17;;;16.05;;
42944;SDS011;28584;42.636;23.294;2023-06-24T08:22:10;17.02;;;15.23;;
42944;SDS011;28584;42.636;23.294;2023-06-24T08:24:36;17.40;;;15.25;;
42944;SDS011;28584;42.636;23.294;2023-06-24T08:27:02;17.85;;;15.93;;
42944;SDS011;28584;42.636;23.294;2023-06-24T08:29:27;18.33;;;15.98;;
42944;SDS011;28584;42.636;23.294;2023-06-24T08:31:53;19.70;;;16.35;;
42944;SDS011;28584;42.636;23.294;2023-06-24T08:34:18;18.00;;;14.75;;
42944;SDS011;28584;42.636;23.294;2023-06-24T08:36:43;16.33;;;14.57;;
42944;SDS011;28584;42.636;23.294;2023-06-24T08:39:09;18.35;;;14.02;;
42944;SDS011;28584;42.636;23.294;2023-06-24T08:41:34;15.88;;;14.23;;
42944;SDS011;28584;42.636;23.294;2023-06-24T08:43:59;16.52;;;13.52;;
42944;SDS011;28584;42.636;23.294;2023-06-24T08:46:25;17.25;;;15.02;;
42944;SDS011;28584;42.636;23.294;2023-06-24T08:48:57;15.52;;;13.93;;
42944;SDS011;28584;42.636;23.294;2023-06-24T08:51:31;20.83;;;14.35;;
42944;SDS011;28584;42.636;23.294;2023-06-24T08:54:00;19.05;;;14.05;;
42944;SDS011;28584;42.636;23.294;2023-06-24T08:56:26;16.05;;;12.63;;
42944;SDS011;28584;42.636;23.294;2023-06-24T08:58:52;15.40;;;13.90;;
42944;SDS011;28584;42.636;23.294;2023-06-24T09:01:17;16.85;;;12.45;;
42944;SDS011;28584;42.636;23.294;2023-06-24T09:03:43;14.23;;;12.65;;
42944;SDS011;28584;42.636;23.294;2023-06-24T09:06:08;15.07;;;13.20;;
42944;SDS011;28584;42.636;23.294;2023-06-24T09:08:34;14.90;;;12.48;;
42944;SDS011;28584;42.636;23.294;2023-06-24T09:11:00;14.77;;;12.00;;
42944;SDS011;28584;42.636;23.294;2023-06-24T09:13:35;15.70;;;12.77;;
42944;SDS011;28584;42.636;23.294;2023-06-24T09:16:09;14.07;;;12.63;;
42944;SDS011;28584;42.636;23.294;2023-06-24T09:18:38;14.80;;;12.30;;
42944;SDS011;28584;42.636;23.294;2023-06-24T09:21:03;16.48;;;11.68;;
42944;SDS011;28584;42.636;23.294;2023-06-24T09:23:28;14.40;;;12.20;;
42944;SDS011;28584;42.636;23.294;2023-06-24T09:25:57;14.15;;;11.70;;
42944;SDS011;28584;42.636;23.294;2023-06-24T09:28:26;14.23;;;12.23;;
42944;SDS011;28584;42.636;23.294;2023-06-24T09:31:08;12.50;;;11.27;;
42944;SDS011;28584;42.636;23.294;2023-06-24T09:33:34;12.40;;;11.10;;
42944;SDS011;28584;42.636;23.294;2023-06-24T09:36:03;13.43;;;11.48;;
42944;SDS011;28584;42.636;23.294;2023-06-24T09:38:36;13.15;;;11.45;;
42944;SDS011;28584;42.636;23.294;2023-06-24T09:41:05;12.55;;;11.07;;
42944;SDS011;28584;42.636;23.294;2023-06-24T09:43:34;13.27;;;12.00;;
42944;SDS011;28584;42.636;23.294;2023-06-24T09:46:01;12.23;;;10.98;;
42944;SDS011;28584;42.636;23.294;2023-06-24T09:48:27;14.13;;;11.30;;
42944;SDS011;28584;42.636;23.294;2023-06-24T09:50:53;12.75;;;11.45;;
42944;SDS011;28584;42.636;23.294;2023-06-24T09:53:23;15.25;;;11.85;;
42944;SDS011;28584;42.636;23.294;2023-06-24T09:55:49;14.75;;;12.27;;
42944;SDS011;28584;42.636;23.294;2023-06-24T09:58:16;13.32;;;11.40;;
42944;SDS011;28584;42.636;23.294;2023-06-24T10:00:43;12.55;;;11.27;;
42944;SDS011;28584;42.636;23.294;2023-06-24T10:03:09;13.40;;;10.75;;
42944;SDS011;28584;42.636;23.294;2023-06-24T10:05:35;15.45;;;11.40;;
42944;SDS011;28584;42.636;23.294;2023-06-24T10:18:46;12.23;;;11.02;;
42944;SDS011;28584;42.636;23.294;2023-06-24T10:21:12;15.68;;;11.30;;
42944;SDS011;28584;42.636;23.294;2023-06-24T10:23:53;12.35;;;11.15;;
42944;SDS011;28584;42.636;23.294;2023-06-24T10:26:30;12.93;;;11.55;;
42944;SDS011;28584;42.636;23.294;2023-06-24T10:31:50;13.68;;;11.38;;
42944;SDS011;28584;42.636;23.294;2023-06-24T10:44:57;12.68;;;10.73;;
42944;SDS011;28584;42.636;23.294;2023-06-24T10:47:26;16.20;;;11.43;;
42944;SDS011;28584;42.636;23.294;2023-06-24T10:49:52;12.85;;;10.50;;
42944;SDS011;28584;42.636;23.294;2023-06-24T10:52:18;12.82;;;10.43;;
42944;SDS011;28584;42.636;23.294;2023-06-24T10:54:48;12.20;;;10.68;;
42944;SDS011;28584;42.636;23.294;2023-06-24T10:57:14;14.18;;;10.07;;
42944;SDS011;28584;42.636;23.294;2023-06-24T10:59:40;12.32;;;9.10;;
42944;SDS011;28584;42.636;23.294;2023-06-24T11:02:09;9.95;;;8.80;;
42944;SDS011;28584;42.636;23.294;2023-06-24T11:04:42;9.82;;;8.82;;
42944;SDS011;28584;42.636;23.294;2023-06-24T11:07:12;10.18;;;9.18;;
42944;SDS011;28584;42.636;23.294;2023-06-24T11:09:38;10.30;;;9.20;;
42944;SDS011;28584;42.636;23.294;2023-06-24T11:12:05;12.68;;;8.07;;
42944;SDS011;28584;42.636;23.294;2023-06-24T11:14:32;9.82;;;8.48;;
42944;SDS011;28584;42.636;23.294;2023-06-24T11:17:00;9.05;;;8.15;;
42944;SDS011;28584;42.636;23.294;2023-06-24T11:19:27;10.32;;;7.97;;
42944;SDS011;28584;42.636;23.294;2023-06-24T11:21:52;9.98;;;8.75;;
42944;SDS011;28584;42.636;23.294;2023-06-24T11:24:17;9.00;;;8.02;;
42944;SDS011;28584;42.636;23.294;2023-06-24T11:26:43;9.27;;;8.30;;
42944;SDS011;28584;42.636;23.294;2023-06-24T11:29:11;9.40;;;8.50;;
42944;SDS011;28584;42.636;23.294;2023-06-24T11:31:36;12.23;;;8.80;;
42944;SDS011;28584;42.636;23.294;2023-06-24T11:34:02;9.50;;;8.60;;
42944;SDS011;28584;42.636;23.294;2023-06-24T11:36:28;9.32;;;8.30;;
42944;SDS011;28584;42.636;23.294;2023-06-24T11:38:54;9.82;;;8.82;;
42944;SDS011;28584;42.636;23.294;2023-06-24T11:41:22;10.52;;;9.02;;
42944;SDS011;28584;42.636;23.294;2023-06-24T11:43:48;12.23;;;9.70;;
42944;SDS011;28584;42.636;23.294;2023-06-24T11:46:29;10.75;;;9.30;;
42944;SDS011;28584;42.636;23.294;2023-06-24T11:51:33;11.75;;;9.25;;
42944;SDS011;28584;42.636;23.294;2023-06-24T11:54:03;10.50;;;9.23;;
42944;SDS011;28584;42.636;23.294;2023-06-24T12:01:54;11.23;;;9.43;;
42944;SDS011;28584;42.636;23.294;2023-06-24T12:04:27;12.05;;;8.48;;
42944;SDS011;28584;42.636;23.294;2023-06-24T12:06:53;12.65;;;9.38;;
42944;SDS011;28584;42.636;23.294;2023-06-24T12:09:19;9.48;;;8.57;;
42944;SDS011;28584;42.636;23.294;2023-06-24T12:11:45;14.63;;;9.38;;
42944;SDS011;28584;42.636;23.294;2023-06-24T12:14:10;9.82;;;8.30;;
42944;SDS011;28584;42.636;23.294;2023-06-24T12:16:36;9.98;;;8.90;;
42944;SDS011;28584;42.636;23.294;2023-06-24T12:19:02;8.77;;;7.85;;
42944;SDS011;28584;42.636;23.294;2023-06-24T12:21:27;10.40;;;8.10;;
42944;SDS011;28584;42.636;23.294;2023-06-24T12:23:53;9.95;;;8.95;;
42944;SDS011;28584;42.636;23.294;2023-06-24T12:26:18;9.90;;;9.00;;
42944;SDS011;28584;42.636;23.294;2023-06-24T12:28:44;10.68;;;7.95;;
42944;SDS011;28584;42.636;23.294;2023-06-24T12:31:10;9.52;;;8.50;;
42944;SDS011;28584;42.636;23.294;2023-06-24T12:33:36;11.38;;;8.85;;
42944;SDS011;28584;42.636;23.294;2023-06-24T12:36:02;9.80;;;8.82;;
42944;SDS011;28584;42.636;23.294;2023-06-24T12:38:27;9.52;;;8.63;;
42944;SDS011;28584;42.636;23.294;2023-06-24T12:40:52;10.98;;;8.63;;
42944;SDS011;28584;42.636;23.294;2023-06-24T12:43:18;11.90;;;8.60;;
42944;SDS011;28584;42.636;23.294;2023-06-24T12:45:43;11.02;;;9.48;;
42944;SDS011;28584;42.636;23.294;2023-06-24T12:48:09;11.95;;;10.50;;
42944;SDS011;28584;42.636;23.294;2023-06-24T12:50:35;11.27;;;10.10;;
42944;SDS011;28584;42.636;23.294;2023-06-24T12:53:01;11.40;;;10.20;;
42944;SDS011;28584;42.636;23.294;2023-06-24T12:55:27;16.17;;;10.27;;
42944;SDS011;28584;42.636;23.294;2023-06-24T12:57:52;11.40;;;10.00;;
42944;SDS011;28584;42.636;23.294;2023-06-24T13:00:20;11.95;;;10.63;;
42944;SDS011;28584;42.636;23.294;2023-06-24T13:02:47;11.48;;;10.48;;
42944;SDS011;28584;42.636;23.294;2023-06-24T13:05:12;11.18;;;10.25;;
42944;SDS011;28584;42.636;23.294;2023-06-24T13:07:38;13.18;;;11.85;;
42944;SDS011;28584;42.636;23.294;2023-06-24T13:10:03;12.10;;;11.07;;
42944;SDS011;28584;42.636;23.294;2023-06-24T13:12:31;14.82;;;13.63;;
42944;SDS011;28584;42.636;23.294;2023-06-24T13:14:59;26.40;;;24.58;;
42944;SDS011;28584;42.636;23.294;2023-06-24T13:17:25;75.18;;;71.35;;
42944;SDS011;28584;42.636;23.294;2023-06-24T13:19:51;54.78;;;52.00;;
42944;SDS011;28584;42.636;23.294;2023-06-24T13:22:17;41.35;;;38.97;;
42944;SDS011;28584;42.636;23.294;2023-06-24T13:24:42;41.13;;;38.78;;
42944;SDS011;28584;42.636;23.294;2023-06-24T13:27:08;41.53;;;39.10;;
42944;SDS011;28584;42.636;23.294;2023-06-24T13:29:36;881.38;;;794.08;;
42944;SDS011;28584;42.636;23.294;2023-06-24T13:32:01;1162.65;;;929.30;;
42944;SDS011;28584;42.636;23.294;2023-06-24T13:34:27;1374.80;;;982.08;;
42944;SDS011;28584;42.636;23.294;2023-06-24T13:36:53;1004.22;;;891.42;;
42944;SDS011;28584;42.636;23.294;2023-06-24T13:39:19;836.78;;;759.22;;
42944;SDS011;28584;42.636;23.294;2023-06-24T13:41:47;745.88;;;684.70;;
42944;SDS011;28584;42.636;23.294;2023-06-24T13:44:13;610.72;;;566.92;;
42944;SDS011;28584;42.636;23.294;2023-06-24T13:46:38;638.63;;;590.90;;
42944;SDS011;28584;42.636;23.294;2023-06-24T13:49:04;26.50;;;22.08;;
42944;SDS011;28584;42.636;23.294;2023-06-24T13:51:29;17.67;;;11.18;;
42944;SDS011;28584;42.636;23.294;2023-06-24T13:53:54;29.40;;;26.05;;
42944;SDS011;28584;42.636;23.294;2023-06-24T13:56:21;17.90;;;11.88;;
42944;SDS011;28584;42.636;23.294;2023-06-24T13:58:49;27.13;;;23.88;;
42944;SDS011;28584;42.636;23.294;2023-06-24T14:01:15;24.60;;;20.17;;
42944;SDS011;28584;42.636;23.294;2023-06-24T14:03:41;31.05;;;28.67;;
42944;SDS011;28584;42.636;23.294;2023-06-24T14:06:07;22.27;;;20.58;;
42944;SDS011;28584;42.636;23.294;2023-06-24T14:08:33;19.25;;;13.77;;
42944;SDS011;28584;42.636;23.294;2023-06-24T14:10:59;22.83;;;20.83;;
42944;SDS011;28584;42.636;23.294;2023-06-24T14:13:25;151.90;;;143.13;;
42944;SDS011;28584;42.636;23.294;2023-06-24T14:15:52;371.88;;;348.48;;
42944;SDS011;28584;42.636;23.294;2023-06-24T14:18:18;345.88;;;325.95;;
42944;SDS011;28584;42.636;23.294;2023-06-24T14:20:43;832.75;;;761.25;;
42944;SDS011;28584;42.636;23.294;2023-06-24T14:23:09;830.00;;;754.20;;
42944;SDS011;28584;42.636;23.294;2023-06-24T14:25:34;1002.45;;;884.65;;
42944;SDS011;28584;42.636;23.294;2023-06-24T14:28:02;1204.95;;;930.58;;
42944;SDS011;28584;42.636;23.294;2023-06-24T14:30:28;999.15;;;889.03;;
42944;SDS011;28584;42.636;23.294;2023-06-24T14:32:54;973.88;;;859.50;;
42944;SDS011;28584;42.636;23.294;2023-06-24T14:35:19;906.15;;;812.42;;
42944;SDS011;28584;42.636;23.294;2023-06-24T14:37:44;864.95;;;788.78;;
42944;SDS011;28584;42.636;23.294;2023-06-24T14:40:10;884.03;;;802.45;;
42944;SDS011;28584;42.636;23.294;2023-06-24T14:42:35;831.20;;;762.10;;
42944;SDS011;28584;42.636;23.294;2023-06-24T14:45:01;870.22;;;789.05;;
42944;SDS011;28584;42.636;23.294;2023-06-24T14:47:26;785.33;;;717.65;;